Weather at Stockholm Skavsta Airport

Public forecast

Using degrees Celsius for public forecast. Weather courtesy of forecast.io.

Current aviation weather report (METAR) for Stockholm Skavsta Airport

Retrieved 2022/06/24 22:20 UTC (36 seconds ago):

ESKN 242220Z 15007KT CAVOK 18/14 Q1014

Aviation forecast (TAF) for Stockholm Skavsta Airport

Retrieved 2022/06/24 21:00 UTC (1 hour ago):

TAF ESKN 242030Z 2421/2521 14010KT CAVOK